createdAt,value
2018-02-02T00:01:11.577Z,21.04
2018-02-02T00:03:38.955Z,21.07
2018-02-02T00:06:06.353Z,20.87
2018-02-02T00:08:33.764Z,21.03
2018-02-02T00:11:01.169Z,20.98
2018-02-02T00:13:28.551Z,21.01
2018-02-02T00:15:55.956Z,20.99
2018-02-02T00:18:23.317Z,21.03
2018-02-02T00:20:50.738Z,20.99
2018-02-02T00:23:18.165Z,20.97
2018-02-02T00:25:45.537Z,20.96
2018-02-02T00:28:13.032Z,20.96
2018-02-02T00:30:40.535Z,20.86
2018-02-02T00:33:07.988Z,21.02
2018-02-02T00:35:35.406Z,21.05
2018-02-02T00:38:02.785Z,20.98
2018-02-02T00:40:30.146Z,20.98
2018-02-02T00:42:57.546Z,20.91
2018-02-02T00:45:25.131Z,20.95
2018-02-02T00:47:52.542Z,20.89
2018-02-02T00:50:20.007Z,20.81
2018-02-02T00:52:47.422Z,20.96
2018-02-02T00:55:14.822Z,20.92
2018-02-02T00:57:42.245Z,20.92
2018-02-02T01:00:09.584Z,20.88
2018-02-02T01:02:36.950Z,20.92
2018-02-02T01:05:04.391Z,20.80
2018-02-02T01:07:31.811Z,20.90
2018-02-02T01:09:59.178Z,20.93
2018-02-02T01:12:26.553Z,20.93
2018-02-02T01:14:53.946Z,20.89
2018-02-02T01:17:21.359Z,20.86
2018-02-02T01:19:48.764Z,20.91
2018-02-02T01:22:16.126Z,20.87
2018-02-02T01:24:43.525Z,20.87
2018-02-02T01:27:10.964Z,20.90
2018-02-02T01:29:38.336Z,20.85
2018-02-02T01:32:05.760Z,20.79
2018-02-02T01:34:33.110Z,20.83
2018-02-02T01:37:00.480Z,20.84
2018-02-02T01:39:27.881Z,20.65
2018-02-02T01:41:55.384Z,20.85
2018-02-02T01:44:22.770Z,20.84
2018-02-02T01:46:50.218Z,20.77
2018-02-02T01:49:17.639Z,20.76
2018-02-02T01:51:45.047Z,20.81
2018-02-02T01:54:12.476Z,20.80
2018-02-02T01:56:39.832Z,20.76
2018-02-02T01:59:07.202Z,20.81
2018-02-02T02:01:34.599Z,20.81
2018-02-02T02:04:02.063Z,20.73
2018-02-02T02:06:29.460Z,20.65
2018-02-02T02:08:56.876Z,20.62
2018-02-02T02:11:24.265Z,20.63
2018-02-02T02:13:51.626Z,20.45
2018-02-02T02:16:19.030Z,20.55
2018-02-02T02:18:46.465Z,20.57
2018-02-02T02:21:13.875Z,20.49
2018-02-02T02:23:41.404Z,20.53
2018-02-02T02:26:08.770Z,20.53
2018-02-02T02:28:36.136Z,20.49
2018-02-02T02:31:03.524Z,20.46
2018-02-02T02:33:30.914Z,20.61
2018-02-02T02:35:58.271Z,20.64
2018-02-02T02:38:25.771Z,20.61
2018-02-02T02:40:53.258Z,20.67
2018-02-02T02:43:20.625Z,20.61
2018-02-02T02:45:47.994Z,20.67
2018-02-02T02:48:15.414Z,20.64
2018-02-02T02:50:42.775Z,20.76
2018-02-02T02:53:10.167Z,20.79
2018-02-02T02:55:37.510Z,20.63
2018-02-02T02:58:04.898Z,20.78
2018-02-02T03:00:32.300Z,20.86
2018-02-02T03:02:59.771Z,20.76
2018-02-02T03:05:27.122Z,20.80
2018-02-02T03:07:54.498Z,20.72
2018-02-02T03:10:21.951Z,20.81
2018-02-02T03:12:49.355Z,20.87
2018-02-02T03:15:16.735Z,20.89
2018-02-02T03:17:44.131Z,20.88
2018-02-02T03:20:11.582Z,20.81
2018-02-02T03:22:38.925Z,20.89
2018-02-02T03:25:06.317Z,20.86
2018-02-02T03:27:33.654Z,20.74
2018-02-02T03:30:01.045Z,20.88
2018-02-02T03:32:28.446Z,20.86
2018-02-02T03:34:55.854Z,20.89
2018-02-02T03:37:23.243Z,20.92
2018-02-02T03:39:50.582Z,20.77
2018-02-02T03:42:17.972Z,20.88
2018-02-02T03:44:45.327Z,20.93
2018-02-02T03:47:12.738Z,20.91
2018-02-02T03:49:40.077Z,20.87
2018-02-02T03:52:07.453Z,20.94
2018-02-02T03:54:34.851Z,20.91
2018-02-02T03:57:02.201Z,20.97
2018-02-02T03:59:29.621Z,21.00
2018-02-02T04:01:56.973Z,20.94
2018-02-02T04:04:24.393Z,20.89
2018-02-02T04:06:51.758Z,20.92
2018-02-02T04:09:19.147Z,20.98
2018-02-02T04:11:46.523Z,20.98
2018-02-02T04:14:13.867Z,20.91
2018-02-02T04:16:41.258Z,20.94
2018-02-02T04:19:08.614Z,21.12
2018-02-02T04:21:35.955Z,21.13
2018-02-02T04:24:03.350Z,21.08
2018-02-02T04:26:30.729Z,21.21
2018-02-02T04:28:58.118Z,21.23
2018-02-02T04:31:25.570Z,21.23
2018-02-02T04:33:52.968Z,21.26
2018-02-02T04:36:20.379Z,21.33
2018-02-02T04:38:47.789Z,21.36
2018-02-02T04:41:15.224Z,21.41
2018-02-02T04:43:42.698Z,21.40
2018-02-02T04:46:10.131Z,21.55
2018-02-02T04:48:37.572Z,21.52
2018-02-02T04:51:04.965Z,21.46
2018-02-02T04:53:32.448Z,21.45
2018-02-02T04:55:59.862Z,21.56
2018-02-02T04:58:27.336Z,21.68
2018-02-02T05:00:54.787Z,21.43
2018-02-02T05:03:22.169Z,21.69
2018-02-02T05:05:49.551Z,21.71
2018-02-02T05:08:16.996Z,21.67
2018-02-02T05:10:44.430Z,21.73
2018-02-02T05:13:11.827Z,21.60
2018-02-02T05:15:39.271Z,21.69
2018-02-02T05:18:06.694Z,21.74
2018-02-02T05:20:34.117Z,21.70
2018-02-02T05:23:01.516Z,21.66
2018-02-02T05:25:28.906Z,21.75
2018-02-02T05:27:56.381Z,21.80
2018-02-02T05:30:23.751Z,21.76
2018-02-02T05:32:51.141Z,21.87
2018-02-02T05:35:18.560Z,21.82
2018-02-02T05:37:45.980Z,21.92
2018-02-02T05:40:13.378Z,21.85
2018-02-02T05:42:40.814Z,21.93
2018-02-02T05:45:08.261Z,21.88
2018-02-02T05:47:35.644Z,22.00
2018-02-02T05:50:03.085Z,22.01
2018-02-02T05:52:30.482Z,21.83
2018-02-02T05:54:58.007Z,21.99
2018-02-02T05:57:25.407Z,21.89
2018-02-02T05:59:52.875Z,21.99
2018-02-02T06:02:20.281Z,21.93
2018-02-02T06:04:47.689Z,22.09
2018-02-02T06:07:15.206Z,22.02
2018-02-02T06:09:42.638Z,22.10
2018-02-02T06:12:10.070Z,22.07
2018-02-02T06:14:37.474Z,22.14
2018-02-02T06:17:04.922Z,22.04
2018-02-02T06:19:32.308Z,22.13
2018-02-02T06:22:00.096Z,22.10
2018-02-02T06:24:27.552Z,22.13
2018-02-02T06:26:54.977Z,22.02
2018-02-02T06:29:35.602Z,22.06
2018-02-02T06:32:03.173Z,22.09
2018-02-02T06:34:30.817Z,22.17
2018-02-02T06:36:58.375Z,22.29
2018-02-02T06:39:26.689Z,22.15
2018-02-02T06:41:55.264Z,22.13
2018-02-02T06:44:23.397Z,22.26
2018-02-02T06:46:51.067Z,22.19
2018-02-02T06:49:18.752Z,22.37
2018-02-02T06:51:48.196Z,22.34
2018-02-02T06:54:16.950Z,22.28
2018-02-02T06:56:44.557Z,22.27
2018-02-02T06:59:12.347Z,22.47
2018-02-02T07:01:42.965Z,22.39
2018-02-02T07:04:12.545Z,22.16
2018-02-02T07:06:43.053Z,22.39
2018-02-02T07:09:19.287Z,22.53
2018-02-02T07:11:46.990Z,22.38
2018-02-02T07:14:14.686Z,22.47
2018-02-02T07:16:42.660Z,22.73
2018-02-02T07:19:10.302Z,22.64
2018-02-02T07:21:38.059Z,22.48
2018-02-02T07:24:05.642Z,22.59
2018-02-02T07:26:36.520Z,22.66
2018-02-02T07:29:04.214Z,22.65
2018-02-02T07:31:32.687Z,22.66
2018-02-02T07:34:00.365Z,22.71
2018-02-02T07:36:28.428Z,22.96
2018-02-02T07:38:56.364Z,22.78
2018-02-02T07:54:34.747Z,23.00
2018-02-02T07:57:02.525Z,23.02
2018-02-02T07:59:30.338Z,22.99
2018-02-02T08:01:59.559Z,23.22
2018-02-02T08:04:27.455Z,23.15
2018-02-02T08:06:54.884Z,23.13
2018-02-02T08:09:22.328Z,22.98
2018-02-02T08:11:49.854Z,22.99
2018-02-02T08:14:17.506Z,23.00
2018-02-02T08:16:44.974Z,23.20
2018-02-02T08:19:12.392Z,23.17
2018-02-02T08:21:39.896Z,22.95
2018-02-02T08:24:07.266Z,23.29
2018-02-02T08:26:34.798Z,23.32
2018-02-02T08:29:02.254Z,23.26
2018-02-02T08:31:29.897Z,23.12
2018-02-02T08:33:57.335Z,23.21
2018-02-02T08:36:24.832Z,23.43
2018-02-02T08:38:52.292Z,23.40
2018-02-02T08:41:19.683Z,23.20
2018-02-02T08:43:47.133Z,23.43
2018-02-02T08:46:14.542Z,23.32
2018-02-02T08:48:42.085Z,23.06
2018-02-02T08:51:09.636Z,23.43
2018-02-02T08:53:37.127Z,23.52
2018-02-02T08:56:04.624Z,23.58
2018-02-02T08:58:32.067Z,23.44
2018-02-02T09:00:59.667Z,23.41
2018-02-02T09:03:27.135Z,23.51
2018-02-02T09:05:54.752Z,23.46
2018-02-02T09:08:22.298Z,23.58
2018-02-02T09:10:49.689Z,23.35
2018-02-02T09:13:17.181Z,23.56
2018-02-02T09:15:44.709Z,23.41
2018-02-02T09:18:12.176Z,23.50
2018-02-02T09:20:39.692Z,23.53
2018-02-02T09:23:07.244Z,23.44
2018-02-02T09:25:34.722Z,23.51
2018-02-02T09:28:02.415Z,23.42
2018-02-02T09:30:29.929Z,23.55
2018-02-02T09:32:57.497Z,23.50
2018-02-02T09:35:24.960Z,23.50
2018-02-02T09:37:52.358Z,23.48
2018-02-02T09:40:20.181Z,23.41
2018-02-02T09:42:47.670Z,23.23
2018-02-02T09:45:15.203Z,23.64
2018-02-02T09:47:42.638Z,23.53
2018-02-02T09:50:10.035Z,23.51
2018-02-02T09:52:37.490Z,23.25
2018-02-02T09:55:04.949Z,23.56
2018-02-02T09:57:32.357Z,23.41
2018-02-02T09:59:59.839Z,23.46
2018-02-02T10:02:27.298Z,23.33
2018-02-02T10:04:54.763Z,23.39
2018-02-02T10:07:22.167Z,23.56
2018-02-02T10:09:49.541Z,23.35
2018-02-02T10:12:16.952Z,23.38
2018-02-02T10:14:44.386Z,23.54
2018-02-02T10:17:11.780Z,23.51
2018-02-02T10:19:39.251Z,23.59
2018-02-02T10:22:06.642Z,23.57
2018-02-02T10:24:34.284Z,23.67
2018-02-02T10:27:01.964Z,23.54
2018-02-02T10:29:29.388Z,23.70
2018-02-02T10:31:56.846Z,23.72
2018-02-02T10:34:24.663Z,23.62
2018-02-02T10:36:52.164Z,23.85
2018-02-02T10:39:19.627Z,23.75
2018-02-02T10:41:47.068Z,23.70
2018-02-02T10:44:14.500Z,23.63
2018-02-02T10:46:41.915Z,23.77
2018-02-02T10:49:09.366Z,23.54
2018-02-02T10:51:36.814Z,23.79
2018-02-02T10:54:04.290Z,23.56
2018-02-02T10:56:31.710Z,23.77
2018-02-02T10:58:59.188Z,23.77
2018-02-02T11:01:26.652Z,23.73
2018-02-02T11:03:54.121Z,23.71
2018-02-02T11:06:21.623Z,24.00
2018-02-02T11:08:49.195Z,23.92
2018-02-02T11:11:16.736Z,23.86
2018-02-02T11:13:44.171Z,23.57
2018-02-02T11:16:11.619Z,24.14
2018-02-02T11:18:39.122Z,24.08
2018-02-02T11:21:06.625Z,24.00
2018-02-02T11:23:34.233Z,23.94
2018-02-02T11:26:04.835Z,24.07
2018-02-02T11:28:32.255Z,24.02
2018-02-02T11:30:59.801Z,23.79
2018-02-02T11:33:27.160Z,24.08
2018-02-02T11:35:54.634Z,24.16
2018-02-02T11:38:22.083Z,24.33
2018-02-02T11:40:49.555Z,24.22
2018-02-02T11:43:18.049Z,24.03
2018-02-02T11:45:45.496Z,24.03
2018-02-02T11:48:12.932Z,24.37
2018-02-02T11:50:40.501Z,24.43
2018-02-02T11:53:07.920Z,24.33
2018-02-02T11:55:35.326Z,24.31
2018-02-02T11:58:02.850Z,24.04
2018-02-02T12:00:30.338Z,24.12
2018-02-02T12:02:57.768Z,24.02
2018-02-02T12:05:25.192Z,24.07
2018-02-02T12:07:52.675Z,24.09
2018-02-02T12:10:20.108Z,23.72
2018-02-02T12:12:47.621Z,24.07
2018-02-02T12:15:15.084Z,23.95
2018-02-02T12:17:42.567Z,23.94
2018-02-02T12:20:10.026Z,23.95
2018-02-02T12:22:41.480Z,24.00
2018-02-02T12:25:08.873Z,24.20
2018-02-02T12:27:36.348Z,24.10
2018-02-02T12:30:03.775Z,23.91
2018-02-02T12:32:31.215Z,24.02
2018-02-02T12:34:58.594Z,23.91
2018-02-02T12:37:26.037Z,24.13
2018-02-02T12:39:53.435Z,24.13
2018-02-02T12:42:20.833Z,24.07
2018-02-02T12:44:48.252Z,23.96
2018-02-02T12:47:15.836Z,23.93
2018-02-02T12:49:43.210Z,24.14
2018-02-02T12:52:10.651Z,24.12
2018-02-02T12:54:38.135Z,24.08
2018-02-02T12:57:05.570Z,24.22
2018-02-02T12:59:32.985Z,24.14
2018-02-02T13:02:02.049Z,24.07
2018-02-02T13:04:29.566Z,24.25
2018-02-02T13:06:56.966Z,24.07
2018-02-02T13:09:24.407Z,24.25
2018-02-02T13:11:51.915Z,24.06
2018-02-02T13:14:19.303Z,24.12
2018-02-02T13:16:46.693Z,24.30
2018-02-02T13:19:14.166Z,24.13
2018-02-02T13:21:41.631Z,24.34
2018-02-02T13:24:09.129Z,24.12
2018-02-02T13:26:36.554Z,23.94
2018-02-02T13:29:03.990Z,24.22
2018-02-02T13:31:31.404Z,24.32
2018-02-02T13:33:58.874Z,24.28
2018-02-02T13:36:26.532Z,24.24
2018-02-02T13:38:53.914Z,24.29
2018-02-02T13:41:21.330Z,24.52
2018-02-02T13:43:48.750Z,24.39
2018-02-02T13:46:16.207Z,24.37
2018-02-02T13:48:43.645Z,24.26
2018-02-02T13:51:11.055Z,24.32
2018-02-02T13:53:38.536Z,23.97
2018-02-02T13:56:06.172Z,24.12
2018-02-02T13:58:33.620Z,24.20
2018-02-02T14:01:01.063Z,24.38
2018-02-02T14:03:28.570Z,24.28
2018-02-02T14:05:56.118Z,24.61
2018-02-02T14:08:23.542Z,24.50
2018-02-02T14:10:51.000Z,24.63
2018-02-02T14:13:18.422Z,24.62
2018-02-02T14:15:45.970Z,24.52
2018-02-02T14:18:13.393Z,24.59
2018-02-02T14:20:40.863Z,24.64
2018-02-02T14:23:08.307Z,24.43
2018-02-02T14:25:35.723Z,24.62
2018-02-02T14:28:03.159Z,24.55
2018-02-02T14:30:30.679Z,24.70
2018-02-02T14:32:58.103Z,24.67
2018-02-02T14:35:25.514Z,24.57
2018-02-02T14:37:52.927Z,24.70
2018-02-02T14:40:20.326Z,24.62
2018-02-02T14:42:47.829Z,24.60
2018-02-02T14:45:15.317Z,24.48
2018-02-02T14:47:42.815Z,24.55
2018-02-02T14:50:10.411Z,24.49
2018-02-02T14:52:37.858Z,24.66
2018-02-02T14:55:05.310Z,24.57
2018-02-02T14:57:32.778Z,24.54
2018-02-02T15:00:00.170Z,24.61
2018-02-02T15:02:27.678Z,24.55
2018-02-02T15:04:55.145Z,24.64
2018-02-02T15:07:22.585Z,24.61
2018-02-02T15:09:50.042Z,24.63
2018-02-02T15:12:17.717Z,24.66
2018-02-02T15:14:45.302Z,24.56
2018-02-02T15:17:12.907Z,24.68
2018-02-02T15:19:41.061Z,24.67
2018-02-02T15:22:08.568Z,24.66
2018-02-02T15:24:36.060Z,24.63
2018-02-02T15:27:03.793Z,24.59
2018-02-02T15:29:33.234Z,24.59
2018-02-02T15:32:00.700Z,24.58
2018-02-02T15:34:28.196Z,24.45
2018-02-02T15:36:55.986Z,24.53
2018-02-02T15:39:23.648Z,24.58
2018-02-02T15:41:51.095Z,24.52
2018-02-02T15:44:18.543Z,24.56
2018-02-02T15:46:46.086Z,24.56
2018-02-02T15:49:13.716Z,24.57
2018-02-02T15:51:41.348Z,24.53
2018-02-02T15:54:09.098Z,24.53
2018-02-02T15:56:36.794Z,24.39
2018-02-02T15:59:04.462Z,24.45
2018-02-02T16:01:32.057Z,24.52
2018-02-02T16:03:59.438Z,24.36
2018-02-02T16:06:27.214Z,24.47
2018-02-02T16:08:54.763Z,24.39
2018-02-02T16:11:22.257Z,24.35
2018-02-02T16:13:49.688Z,24.31
2018-02-02T16:16:17.146Z,24.31
2018-02-02T16:18:44.562Z,24.33
2018-02-02T16:21:12.049Z,24.25
2018-02-02T16:23:40.403Z,24.32
2018-02-02T16:26:07.875Z,24.31
2018-02-02T16:28:35.377Z,24.24
2018-02-02T16:31:02.858Z,24.25
2018-02-02T16:33:30.313Z,24.17
2018-02-02T16:35:57.763Z,24.22
2018-02-02T16:38:25.163Z,24.23
2018-02-02T16:40:52.617Z,24.18
2018-02-02T16:43:19.999Z,24.24
2018-02-02T16:45:47.402Z,24.22
2018-02-02T16:48:14.802Z,24.17
2018-02-02T16:50:42.179Z,24.10
2018-02-02T16:53:09.763Z,24.14
2018-02-02T16:55:37.208Z,24.11
2018-02-02T16:58:04.619Z,24.14
2018-02-02T17:00:32.015Z,24.04
2018-02-02T17:02:59.426Z,24.08
2018-02-02T17:05:26.856Z,24.11
2018-02-02T17:07:54.296Z,24.05
2018-02-02T17:10:21.700Z,24.00
2018-02-02T17:12:51.005Z,23.86
2018-02-02T17:15:19.046Z,23.96
2018-02-02T17:17:46.584Z,24.01
2018-02-02T17:20:13.988Z,23.99
2018-02-02T17:22:41.404Z,23.87
2018-02-02T17:25:08.853Z,23.93
2018-02-02T17:27:36.288Z,23.89
2018-02-02T17:30:03.725Z,23.94
2018-02-02T17:32:31.229Z,23.83
2018-02-02T17:34:58.670Z,23.83
2018-02-02T17:37:26.066Z,23.75
2018-02-02T17:39:53.504Z,23.77
2018-02-02T17:42:20.883Z,23.74
2018-02-02T17:44:48.284Z,23.80
2018-02-02T17:47:15.697Z,23.69
2018-02-02T17:49:43.154Z,23.64
2018-02-02T17:52:10.556Z,23.66
2018-02-02T17:54:38.018Z,23.70
2018-02-02T17:57:05.408Z,23.70
2018-02-02T17:59:32.812Z,23.63
2018-02-02T18:02:00.322Z,23.60
2018-02-02T18:04:27.709Z,23.71
2018-02-02T18:06:55.132Z,23.63
2018-02-02T18:09:22.521Z,23.62
2018-02-02T18:11:49.903Z,23.45
2018-02-02T18:14:17.361Z,23.65
2018-02-02T18:16:44.869Z,23.55
2018-02-02T18:19:12.287Z,23.62
2018-02-02T18:21:39.730Z,23.57
2018-02-02T18:24:07.182Z,23.61
2018-02-02T18:26:34.669Z,23.58
2018-02-02T18:29:02.075Z,23.52
2018-02-02T18:31:29.480Z,23.37
2018-02-02T18:33:56.990Z,23.35
2018-02-02T18:36:24.415Z,23.41
2018-02-02T18:38:51.854Z,23.36
2018-02-02T18:41:19.326Z,23.33
2018-02-02T18:43:46.748Z,23.31
2018-02-02T18:46:14.186Z,23.28
2018-02-02T18:48:41.610Z,23.30
2018-02-02T18:51:09.042Z,23.16
2018-02-02T18:53:36.476Z,23.23
2018-02-02T18:56:03.945Z,23.15
2018-02-02T18:58:31.383Z,23.17
2018-02-02T19:00:58.812Z,23.10
2018-02-02T19:03:26.252Z,23.12
2018-02-02T19:05:53.687Z,23.13
2018-02-02T19:08:21.126Z,23.11
2018-02-02T19:10:48.578Z,23.03
2018-02-02T19:13:15.985Z,23.05
2018-02-02T19:15:43.429Z,23.02
2018-02-02T19:18:10.849Z,23.04
2018-02-02T19:20:38.303Z,23.01
2018-02-02T19:23:05.707Z,23.02
2018-02-02T19:25:33.135Z,22.88
2018-02-02T19:28:00.525Z,22.94
2018-02-02T19:30:27.970Z,22.92
2018-02-02T19:32:55.384Z,22.96
2018-02-02T19:35:23.479Z,22.96
2018-02-02T19:37:50.897Z,22.93
2018-02-02T19:40:18.290Z,22.90
2018-02-02T19:42:45.756Z,22.92
2018-02-02T19:45:13.165Z,22.89
2018-02-02T19:47:40.917Z,22.90
2018-02-02T19:50:08.314Z,22.86
2018-02-02T19:52:35.758Z,22.80
2018-02-02T19:55:03.172Z,22.82
2018-02-02T19:57:30.646Z,22.84
2018-02-02T19:59:58.097Z,22.78
2018-02-02T20:02:25.550Z,22.85
2018-02-02T20:04:53.021Z,22.71
2018-02-02T20:07:20.430Z,22.71
2018-02-02T20:09:47.826Z,22.74
2018-02-02T20:12:15.282Z,22.69
2018-02-02T20:14:42.693Z,22.61
2018-02-02T20:17:10.157Z,22.69
2018-02-02T20:19:37.582Z,22.64
2018-02-02T20:22:05.033Z,22.65
2018-02-02T20:24:32.445Z,22.54
2018-02-02T20:26:59.897Z,22.50
2018-02-02T20:29:27.474Z,22.60
2018-02-02T20:31:54.885Z,22.57
2018-02-02T20:34:22.273Z,22.55
2018-02-02T20:36:49.671Z,22.50
2018-02-02T20:39:17.078Z,22.46
2018-02-02T20:41:44.493Z,22.52
2018-02-02T20:44:11.958Z,22.43
2018-02-02T20:46:39.410Z,22.42
2018-02-02T20:49:06.822Z,22.39
2018-02-02T20:51:34.215Z,22.40
2018-02-02T20:54:01.685Z,22.39
2018-02-02T20:56:29.094Z,22.37
2018-02-02T20:58:56.514Z,22.36
2018-02-02T21:01:23.984Z,22.31
2018-02-02T21:03:51.930Z,22.26
2018-02-02T21:08:52.813Z,22.36
2018-02-02T21:11:20.313Z,22.26
2018-02-02T21:13:47.828Z,22.28
2018-02-02T21:16:15.277Z,22.27
2018-02-02T21:18:42.728Z,22.21
2018-02-02T21:21:10.166Z,22.24
2018-02-02T21:23:37.579Z,22.25
2018-02-02T21:26:04.985Z,22.22
2018-02-02T21:28:32.425Z,22.09
2018-02-02T21:30:59.889Z,22.14
2018-02-02T21:33:27.307Z,22.06
2018-02-02T21:35:54.721Z,22.11
2018-02-02T21:38:22.182Z,22.02
2018-02-02T21:40:49.623Z,22.20
2018-02-02T21:43:17.037Z,22.18
2018-02-02T21:45:44.437Z,22.15
2018-02-02T21:48:11.866Z,22.17
2018-02-02T21:50:39.253Z,22.16
2018-02-02T21:53:06.671Z,21.97
2018-02-02T21:55:34.049Z,22.12
2018-02-02T21:58:01.465Z,22.08
2018-02-02T22:00:28.880Z,22.11
2018-02-02T22:02:56.274Z,22.06
2018-02-02T22:05:23.705Z,22.12
2018-02-02T22:07:51.135Z,22.11
2018-02-02T22:10:18.545Z,22.07
2018-02-02T22:12:45.926Z,22.04
2018-02-02T22:15:13.364Z,22.05
2018-02-02T22:17:40.714Z,22.04
2018-02-02T22:20:08.046Z,22.02
2018-02-02T22:22:35.440Z,22.04
2018-02-02T22:25:02.818Z,22.02
2018-02-02T22:27:30.206Z,22.03
2018-02-02T22:29:57.558Z,21.96
2018-02-02T22:32:24.936Z,21.99
2018-02-02T22:34:52.286Z,21.96
2018-02-02T22:37:19.665Z,21.97
2018-02-02T22:39:47.083Z,21.97
2018-02-02T22:42:14.422Z,21.89
2018-02-02T22:44:41.758Z,21.92
2018-02-02T22:47:09.158Z,21.94
2018-02-02T22:49:36.537Z,21.95
2018-02-02T22:52:03.942Z,21.92
2018-02-02T22:54:31.296Z,21.79
2018-02-02T22:56:58.677Z,21.92
2018-02-02T22:59:26.015Z,21.86
2018-02-02T23:01:53.457Z,21.88
2018-02-02T23:04:20.842Z,21.86
2018-02-02T23:06:48.263Z,21.85
2018-02-02T23:09:15.658Z,21.85
2018-02-02T23:11:42.998Z,21.85
2018-02-02T23:14:10.371Z,21.84
2018-02-02T23:16:37.732Z,21.84
2018-02-02T23:19:05.156Z,21.81
2018-02-02T23:21:32.519Z,21.73
2018-02-02T23:23:59.875Z,21.81
2018-02-02T23:26:27.266Z,21.81
2018-02-02T23:28:54.602Z,21.82
2018-02-02T23:31:21.959Z,21.80
2018-02-02T23:33:49.345Z,21.77
2018-02-02T23:36:16.706Z,21.78
2018-02-02T23:38:44.054Z,21.79
2018-02-02T23:41:11.511Z,21.76
2018-02-02T23:43:38.875Z,21.77
2018-02-02T23:46:06.245Z,21.63
2018-02-02T23:48:33.646Z,21.75
2018-02-02T23:51:01.009Z,21.74
2018-02-02T23:53:28.414Z,21.75
2018-02-02T23:55:55.818Z,21.72
2018-02-02T23:58:23.194Z,21.72
